| time (UTC) | temp F | wind direction | speed MPH | gust MPH | rain 1hr in | rain 24hr in | rain mn in | humidity % | barometer mb |
| 20260902204549 | 95 | 0 | 1.0 | 4.0 | 0.00 | 0.00 | 0.00 | 49 | 1016.6 |
| 20260902203043 | 96 | 108 | 0.0 | 5.0 | 0.00 | 0.00 | 0.00 | 49 | 1016.8 |
| 20260902201554 | 96 | 0 | 0.0 | 2.0 | 0.00 | 0.00 | 0.00 | 49 | 1016.9 |
| 20260902200048 | 97 | 0 | 0.0 | 6.0 | 0.00 | 0.00 | 0.00 | 48 | 1017.1 |
| 20260902194545 | 97 | 110 | 0.0 | 3.0 | 0.00 | 0.00 | 0.00 | 47 | 1017.3 |
| 20260902193100 | 99 | 96 | 0.0 | 8.0 | 0.00 | 0.00 | 0.00 | 47 | 1017.6 |
| 20260902191545 | 99 | 245 | 2.0 | 4.0 | 0.00 | 0.00 | 0.00 | 45 | 1017.8 |
| 20260902190043 | 99 | 124 | 1.0 | 4.0 | 0.00 | 0.00 | 0.00 | 47 | 1018.0 |
| 20260902184606 | 98 | 0 | 1.0 | 3.0 | 0.00 | 0.00 | 0.00 | 48 | 1018.3 |
| 20260902183056 | 100 | 0 | 1.0 | 4.0 | 0.00 | 0.00 | 0.00 | 46 | 1018.5 |
| 20260902181550 | 99 | 119 | 1.0 | 6.0 | 0.00 | 0.00 | 0.00 | 46 | 1018.7 |
| 20260902180044 | 99 | 126 | 1.0 | 6.0 | 0.00 | 0.00 | 0.00 | 48 | 1018.8 |
| 20260902174541 | 100 | 118 | 1.0 | 4.0 | 0.00 | 0.00 | 0.00 | 47 | 1018.8 |
| 20260902173047 | 99 | 96 | 1.0 | 4.0 | 0.00 | 0.00 | 0.00 | 48 | 1019.1 |
| 20260902171553 | 97 | 0 | 0.0 | 4.0 | 0.00 | 0.00 | 0.00 | 51 | 1019.4 |
| 20260902170045 | 98 | 95 | 1.0 | 4.0 | 0.00 | 0.00 | 0.00 | 51 | 1019.6 |
| 20260902164543 | 97 | 91 | 2.0 | 4.0 | 0.00 | 0.00 | 0.00 | 52 | 1019.8 |
| 20260902163056 | 97 | 18 | 1.0 | 4.0 | 0.00 | 0.00 | 0.00 | 51 | 1020.0 |
| 20260902161545 | 97 | 262 | 1.0 | 4.0 | 0.00 | 0.00 | 0.00 | 51 | 1020.2 |
| 20260902160039 | 96 | 261 | 1.0 | 3.0 | 0.00 | 0.00 | 0.00 | 52 | 1020.4 |
| 20260902154549 | 96 | 116 | 1.0 | 3.0 | 0.00 | 0.00 | 0.00 | 53 | 1020.3 |
| 20260902153053 | 96 | 309 | 1.0 | 2.0 | 0.00 | 0.00 | 0.00 | 54 | 1020.4 |
| 20260902151542 | 94 | 288 | 0.0 | 2.0 | 0.00 | 0.00 | 0.00 | 57 | 1020.5 |
| 20260902150047 | 94 | 304 | 1.0 | 2.0 | 0.00 | 0.00 | 0.00 | 60 | 1020.3 |
| 20260902144545 | 92 | 288 | 0.0 | 1.0 | 0.00 | 0.00 | 0.00 | 64 | 1020.3 |
| 20260902143044 | 90 | 0 | 0.0 | 2.0 | 0.00 | 0.00 | 0.00 | 70 | 1020.3 |
| 20260902141539 | 88 | 135 | 0.0 | 3.0 | 0.00 | 0.00 | 0.00 | 71 | 1020.4 |
| 20260902140045 | 86 | 0 | 0.0 | 1.0 | 0.00 | 0.00 | 0.00 | 74 | 1020.3 |
| 20260902134552 | 83 | 0 | 0.0 | 1.0 | 0.00 | 0.00 | 0.00 | 77 | 1020.3 |
| 20260902133047 | 81 | 0 | 0.0 | 1.0 | 0.00 | 0.00 | 0.00 | 82 | 1020.4 |
| 20260902131546 | 80 | 0 | 0.0 | 1.0 | 0.00 | 0.00 | 0.00 | 85 | 1020.3 |
| 20260902130043 | 78 | 136 | 0.0 | 1.0 | 0.00 | 0.00 | 0.00 | 87 | 1020.1 |
| 20260902124548 | 77 | 0 | 0.0 | 0.0 | 0.00 | 0.00 | 0.00 | 90 | 1020.1 |
| 20260902123053 | 76 | 0 | 0.0 | 0.0 | 0.00 | 0.00 | 0.00 | 91 | 1020.1 |
| 20260902121544 | 75 | 0 | 0.0 | 0.0 | 0.00 | 0.00 | 0.00 | 93 | 1020.0 |
| 20260902120043 | 75 | 0 | 0.0 | 0.0 | 0.00 | 0.00 | 0.00 | 93 | 1020.0 |
| 20260902114546 | 74 | 0 | 0.0 | 0.0 | 0.00 | 0.00 | 0.00 | 93 | 1019.8 |
| 20260902113044 | 74 | 0 | 0.0 | 0.0 | 0.00 | 0.00 | 0.00 | 93 | 1019.7 |
| 20260902111543 | 74 | 0 | 0.0 | 0.0 | 0.00 | 0.00 | 0.00 | 92 | 1019.6 |
| 20260902110047 | 75 | 0 | 0.0 | 0.0 | 0.00 | 0.00 | 0.00 | 92 | 1019.4 |
| 20260902104545 | 75 | 0 | 0.0 | 0.0 | 0.00 | 0.00 | 0.00 | 92 | 1019.3 |
| 20260902103045 | 75 | 0 | 0.0 | 0.0 | 0.00 | 0.00 | 0.00 | 91 | 1019.3 |
| 20260902101538 | 75 | 0 | 0.0 | 0.0 | 0.00 | 0.00 | 0.00 | 91 | 1019.1 |
| 20260902100047 | 75 | 0 | 0.0 | 0.0 | 0.00 | 0.00 | 0.00 | 91 | 1019.1 |
| 20260902094545 | 75 | 0 | 0.0 | 0.0 | 0.00 | 0.00 | 0.00 | 90 | 1018.9 |
| 20260902093040 | 75 | 0 | 0.0 | 0.0 | 0.00 | 0.00 | 0.00 | 89 | 1018.8 |
| 20260902091547 | 75 | 0 | 0.0 | 0.0 | 0.00 | 0.00 | 0.00 | 89 | 1018.7 |
| 20260902090045 | 76 | 0 | 0.0 | 0.0 | 0.00 | 0.00 | 0.00 | 88 | 1018.5 |
| 20260902084546 | 76 | 0 | 0.0 | 0.0 | 0.00 | 0.00 | 0.00 | 87 | 1018.4 |
| 20260902083041 | 76 | 0 | 0.0 | 0.0 | 0.00 | 0.00 | 0.00 | 87 | 1018.3 |
| 20260902081547 | 76 | 0 | 0.0 | 0.0 | 0.00 | 0.00 | 0.00 | 86 | 1018.2 |
| 20260902080046 | 76 | 0 | 0.0 | 0.0 | 0.00 | 0.00 | 0.00 | 86 | 1018.2 |
| 20260902074554 | 77 | 0 | 0.0 | 0.0 | 0.00 | 0.00 | 0.00 | 85 | 1018.2 |
| 20260902073042 | 77 | 0 | 0.0 | 0.0 | 0.00 | 0.00 | 0.00 | 85 | 1018.2 |
| 20260902071548 | 77 | 0 | 0.0 | 0.0 | 0.00 | 0.00 | 0.00 | 85 | 1018.2 |
| 20260902070051 | 77 | 0 | 0.0 | 0.0 | 0.00 | 0.00 | 0.00 | 86 | 1018.2 |
| 20260902064546 | 77 | 0 | 0.0 | 0.0 | 0.00 | 0.00 | 0.00 | 86 | 1018.3 |
| 20260902063046 | 78 | 0 | 0.0 | 0.0 | 0.00 | 0.00 | 0.00 | 86 | 1018.3 |
| 20260902061558 | 78 | 0 | 0.0 | 0.0 | 0.00 | 0.00 | 0.00 | 85 | 1018.4 |
| 20260902060056 | 78 | 0 | 0.0 | 0.0 | 0.00 | 0.00 | 0.00 | 85 | 1018.3 |
| 20260902054604 | 78 | 0 | 0.0 | 0.0 | 0.00 | 0.00 | 0.00 | 85 | 1018.3 |
| 20260902053052 | 78 | 0 | 0.0 | 0.0 | 0.00 | 0.00 | 0.00 | 84 | 1018.4 |
| 20260902051547 | 78 | 0 | 0.0 | 0.0 | 0.00 | 0.00 | 0.00 | 83 | 1018.3 |
| 20260902050042 | 79 | 0 | 0.0 | 0.0 | 0.00 | 0.00 | 0.00 | 82 | 1018.3 |
| 20260902044541 | 79 | 0 | 0.0 | 0.0 | 0.00 | 0.00 | 0.00 | 83 | 1018.4 |
| 20260902043049 | 79 | 0 | 0.0 | 0.0 | 0.00 | 0.00 | 0.00 | 82 | 1018.6 |
| 20260902041546 | 80 | 0 | 0.0 | 0.0 | 0.00 | 0.00 | 0.00 | 80 | 1018.6 |
| 20260902040049 | 80 | 0 | 0.0 | 0.0 | 0.00 | 0.00 | 0.00 | 80 | 1018.7 |
| 20260902034541 | 80 | 0 | 0.0 | 0.0 | 0.00 | 0.00 | 0.00 | 79 | 1018.6 |
| 20260902033040 | 80 | 0 | 0.0 | 0.0 | 0.00 | 0.00 | 0.00 | 79 | 1018.6 |
| 20260902031549 | 81 | 0 | 0.0 | 0.0 | 0.00 | 0.00 | 0.00 | 78 | 1018.6 |
| 20260902030042 | 81 | 0 | 0.0 | 0.0 | 0.00 | 0.00 | 0.00 | 78 | 1018.6 |
| 20260902024541 | 82 | 0 | 0.0 | 0.0 | 0.00 | 0.00 | 0.00 | 76 | 1018.6 |
| 20260902023055 | 82 | 0 | 0.0 | 0.0 | 0.00 | 0.00 | 0.00 | 75 | 1018.4 |
| 20260902021545 | 83 | 0 | 0.0 | 0.0 | 0.00 | 0.00 | 0.00 | 72 | 1018.4 |
| 20260902020045 | 83 | 0 | 0.0 | 0.0 | 0.00 | 0.00 | 0.00 | 72 | 1018.3 |
| 20260902014540 | 84 | 0 | 0.0 | 0.0 | 0.00 | 0.00 | 0.00 | 71 | 1018.0 |
| 20260902013051 | 84 | 0 | 0.0 | 0.0 | 0.00 | 0.00 | 0.00 | 69 | 1017.7 |
| 20260902011538 | 85 | 0 | 0.0 | 0.0 | 0.00 | 0.00 | 0.00 | 68 | 1017.6 |
| 20260902010045 | 85 | 0 | 0.0 | 0.0 | 0.00 | 0.00 | 0.00 | 67 | 1017.5 |
| 20260902004546 | 86 | 0 | 0.0 | 0.0 | 0.00 | 0.00 | 0.00 | 66 | 1017.4 |
| 20260902003043 | 87 | 0 | 0.0 | 0.0 | 0.00 | 0.00 | 0.00 | 64 | 1017.3 |
| 20260902001556 | 88 | 0 | 0.0 | 0.0 | 0.00 | 0.00 | 0.00 | 62 | 1017.4 |
| 20260902000043 | 89 | 0 | 0.0 | 0.0 | 0.00 | 0.00 | 0.00 | 60 | 1017.5 |
| 20260901234545 | 90 | 0 | 0.0 | 1.0 | 0.00 | 0.00 | 0.00 | 58 | 1017.5 |
| 20260901233039 | 91 | 265 | 0.0 | 2.0 | 0.00 | 0.00 | 0.00 | 56 | 1017.6 |
| 20260901231539 | 91 | 64 | 0.0 | 3.0 | 0.00 | 0.00 | 0.00 | 55 | 1017.5 |
| 20260901230046 | 92 | 0 | 0.0 | 3.0 | 0.00 | 0.00 | 0.00 | 54 | 1017.7 |
| 20260901224549 | 92 | 274 | 0.0 | 3.0 | 0.00 | 0.00 | 0.00 | 54 | 1017.5 |
| 20260901223051 | 93 | 259 | 1.0 | 3.0 | 0.00 | 0.00 | 0.00 | 53 | 1017.4 |
| 20260901221558 | 93 | 110 | 0.0 | 2.0 | 0.00 | 0.00 | 0.00 | 52 | 1017.3 |
| 20260901220054 | 93 | 263 | 0.0 | 3.0 | 0.00 | 0.00 | 0.00 | 52 | 1017.4 |
| 20260901214541 | 93 | 0 | 1.0 | 3.0 | 0.00 | 0.00 | 0.00 | 49 | 1017.4 |
| 20260901213050 | 93 | 0 | 0.0 | 5.0 | 0.00 | 0.00 | 0.00 | 51 | 1017.4 |
| 20260901211547 | 94 | 94 | 1.0 | 5.0 | 0.00 | 0.00 | 0.00 | 49 | 1017.5 |
| 20260901210046 | 94 | 99 | 1.0 | 5.0 | 0.00 | 0.00 | 0.00 | 48 | 1017.6 |